createdAt,value
2019-01-05T10:19:40.670Z,12.10
2019-01-05T10:22:56.299Z,7.80
2019-01-05T10:26:17.604Z,11.80
2019-01-05T10:29:30.281Z,17.07
2019-01-05T10:33:02.812Z,15.03
2019-01-05T10:36:21.456Z,13.33
2019-01-05T10:39:56.334Z,11.37
2019-01-05T10:43:31.453Z,9.80
2019-01-05T10:46:46.496Z,12.33
2019-01-05T10:50:10.458Z,9.13
2019-01-05T10:53:44.907Z,15.17
2019-01-05T10:57:05.568Z,6.87
2019-01-05T11:00:36.191Z,6.30
2019-01-05T11:04:14.357Z,8.53
2019-01-05T11:07:29.677Z,8.30
2019-01-05T11:11:21.820Z,6.57
2019-01-05T11:14:47.960Z,3.30
2019-01-05T11:18:09.752Z,7.63
2019-01-05T11:21:36.737Z,4.43
2019-01-05T11:25:20.602Z,3.00
2019-01-05T11:28:58.321Z,7.03
2019-01-05T11:32:29.915Z,3.67
2019-01-05T11:36:01.133Z,6.93
2019-01-05T11:39:34.315Z,5.37
2019-01-05T11:42:48.408Z,4.17
2019-01-05T11:46:27.409Z,3.73
2019-01-05T11:50:03.557Z,4.77
2019-01-05T11:53:47.222Z,4.23
2019-01-05T11:57:03.124Z,3.93
2019-01-05T12:00:05.038Z,3.83
2019-01-05T12:03:37.400Z,2.20
2019-01-05T12:07:14.435Z,2.60
2019-01-05T12:10:28.115Z,2.03
2019-01-05T12:14:01.297Z,2.03
2019-01-05T12:17:40.824Z,3.07
2019-01-05T12:21:18.747Z,2.47
2019-01-05T12:25:04.418Z,2.20
2019-01-05T12:28:28.644Z,2.77
2019-01-05T12:31:40.083Z,3.30
2019-01-05T12:35:21.055Z,3.57
2019-01-05T12:38:46.338Z,6.40
2019-01-05T12:42:33.780Z,4.77
2019-01-05T12:46:04.719Z,4.03
2019-01-05T12:49:47.196Z,5.47
2019-01-05T12:53:13.399Z,4.97
2019-01-05T12:56:50.853Z,6.43
2019-01-05T13:00:37.237Z,8.33
2019-01-05T13:04:02.406Z,6.93
2019-01-05T13:07:39.405Z,7.85
2019-01-05T13:10:49.230Z,6.00
2019-01-05T13:14:22.214Z,6.77
2019-01-05T13:18:02.504Z,6.37
2019-01-05T13:21:38.502Z,7.33
2019-01-05T13:24:50.398Z,6.50
2019-01-05T13:28:13.477Z,8.03
2019-01-05T13:31:49.115Z,6.07
2019-01-05T13:35:19.225Z,8.33
2019-01-05T13:38:43.087Z,5.77
2019-01-05T13:42:39.822Z,5.27
2019-01-05T13:46:03.932Z,5.57
2019-01-05T13:49:26.714Z,5.27
2019-01-05T13:52:54.046Z,6.10
2019-01-05T13:55:54.731Z,5.30
2019-01-05T13:58:41.876Z,5.67
2019-01-05T14:01:36.090Z,3.57
2019-01-05T14:04:30.683Z,3.83
2019-01-05T14:07:19.232Z,3.63
2019-01-05T14:10:20.208Z,2.83
2019-01-05T14:13:05.395Z,2.60
2019-01-05T14:15:59.735Z,2.47
2019-01-05T14:18:51.456Z,2.40
2019-01-05T14:21:48.642Z,1.97
2019-01-05T14:24:35.775Z,2.00
2019-01-05T14:27:28.950Z,1.73
2019-01-05T14:30:15.722Z,1.77
2019-01-05T14:33:14.131Z,1.93
2019-01-05T14:35:57.853Z,4.63
2019-01-05T14:38:51.088Z,2.50
2019-01-05T14:41:39.762Z,1.63
2019-01-05T14:44:30.963Z,2.50
2019-01-05T14:47:20.230Z,2.60
2019-01-05T14:50:07.080Z,3.80
2019-01-05T14:53:04.859Z,1.80
2019-01-05T14:55:52.206Z,1.60
2019-01-05T14:58:39.147Z,1.83
2019-01-05T15:01:26.256Z,2.00
2019-01-05T15:04:14.058Z,1.80
2019-01-05T15:07:14.367Z,1.20
2019-01-05T15:10:08.853Z,1.77
2019-01-05T15:12:55.878Z,1.50
2019-01-05T15:15:56.047Z,1.50
2019-01-05T15:18:44.489Z,2.10
2019-01-05T15:21:33.502Z,2.13
2019-01-05T15:24:21.901Z,2.00
2019-01-05T15:27:13.571Z,1.50
2019-01-05T15:30:00.912Z,2.07
2019-01-05T15:32:51.470Z,1.70
2019-01-05T15:35:50.229Z,2.10
2019-01-05T15:38:38.627Z,1.70
2019-01-05T15:41:29.419Z,1.93
2019-01-05T15:44:13.291Z,1.83
2019-01-05T15:47:01.078Z,2.80
2019-01-05T15:49:47.404Z,1.70
2019-01-05T15:52:38.730Z,3.33
2019-01-05T15:55:25.671Z,1.70
2019-01-05T15:58:23.371Z,2.23
2019-01-05T16:01:23.622Z,2.50
2019-01-05T16:04:27.082Z,1.80
2019-01-05T16:07:16.898Z,2.07
2019-01-05T16:10:03.526Z,2.47
2019-01-05T16:13:00.907Z,1.90
2019-01-05T16:15:55.673Z,1.83
2019-01-05T16:19:02.460Z,2.23
2019-01-05T16:21:49.334Z,1.67
2019-01-05T16:24:36.128Z,1.67
2019-01-05T16:27:24.675Z,1.80
2019-01-05T16:30:11.050Z,1.60
2019-01-05T16:32:57.966Z,1.90
2019-01-05T16:35:49.530Z,2.13
2019-01-05T16:38:46.715Z,2.03
2019-01-05T16:41:37.952Z,2.63
2019-01-05T16:44:25.041Z,2.27
2019-01-05T16:47:11.986Z,2.17
2019-01-05T16:49:58.529Z,1.90
2019-01-05T16:52:46.917Z,2.40
2019-01-05T16:55:35.306Z,2.17
2019-01-05T16:58:29.466Z,2.10
2019-01-05T17:01:22.477Z,2.23
2019-01-05T17:04:02.737Z,2.80
2019-01-05T17:06:51.172Z,2.63
2019-01-05T17:09:38.082Z,3.27
2019-01-05T17:12:29.211Z,2.67
2019-01-05T17:15:10.919Z,2.67
2019-01-05T17:17:58.040Z,3.00
2019-01-05T17:20:54.414Z,2.70
2019-01-05T17:23:48.642Z,2.80
2019-01-05T17:26:35.809Z,2.80
2019-01-05T17:29:16.750Z,2.67
2019-01-05T17:31:58.021Z,3.37
2019-01-05T17:34:44.912Z,3.97
2019-01-05T17:37:30.765Z,3.53
2019-01-05T17:40:23.008Z,4.00
2019-01-05T17:43:09.909Z,3.80
2019-01-05T17:45:56.559Z,4.20
2019-01-05T17:48:54.041Z,3.97
2019-01-05T17:51:47.223Z,3.90
2019-01-05T17:54:32.565Z,5.77
2019-01-05T17:57:33.137Z,4.67
2019-01-05T18:00:20.173Z,4.63
2019-01-05T18:03:07.320Z,5.00
2019-01-05T18:05:58.214Z,5.43
2019-01-05T18:09:04.816Z,5.23
2019-01-05T18:11:51.851Z,5.47
2019-01-05T18:14:46.492Z,4.07
2019-01-05T18:17:39.170Z,4.17
2019-01-05T18:20:33.800Z,4.43
2019-01-05T18:23:15.230Z,4.63
2019-01-05T18:26:09.821Z,4.73
2019-01-05T18:28:57.936Z,3.80
2019-01-05T18:31:45.192Z,4.27
2019-01-05T18:34:38.272Z,4.60
2019-01-05T18:37:23.660Z,5.40
2019-01-05T18:40:23.773Z,4.87
2019-01-05T18:43:21.129Z,4.07
2019-01-05T18:46:04.164Z,4.30
2019-01-05T18:48:51.049Z,5.17
2019-01-05T18:51:43.659Z,5.40
2019-01-05T18:54:34.854Z,4.73
2019-01-05T18:57:39.052Z,4.80
2019-01-05T19:00:26.742Z,5.17
2019-01-05T19:03:21.199Z,5.10
2019-01-05T19:06:08.114Z,4.60
2019-01-05T19:08:55.154Z,4.90
2019-01-05T19:11:58.712Z,4.27
2019-01-05T19:14:56.315Z,4.30
2019-01-05T19:17:43.447Z,4.10
2019-01-05T19:20:30.649Z,3.97
2019-01-05T19:23:28.324Z,6.13
2019-01-05T19:26:22.658Z,4.93
2019-01-05T19:29:09.597Z,4.00
2019-01-05T19:31:56.680Z,5.63
2019-01-05T19:34:57.366Z,5.83
2019-01-05T19:37:45.726Z,4.90
2019-01-05T19:40:32.724Z,5.10
2019-01-05T19:43:19.843Z,5.27
2019-01-05T19:46:13.169Z,4.30
2019-01-05T19:49:00.018Z,4.50
2019-01-05T19:51:51.634Z,4.43
2019-01-05T19:54:55.301Z,5.03
2019-01-05T19:57:53.001Z,4.87
2019-01-05T20:00:53.686Z,4.20
2019-01-05T20:03:40.542Z,5.23
2019-01-05T20:06:28.992Z,5.00
2019-01-05T20:09:20.313Z,4.87
2019-01-05T20:12:07.431Z,3.80
2019-01-05T20:14:56.536Z,4.30
2019-01-05T20:17:34.112Z,3.80
2019-01-05T20:20:21.296Z,3.83
2019-01-05T20:23:02.427Z,5.00
2019-01-05T20:25:49.499Z,4.13
2019-01-05T20:28:56.140Z,3.83
2019-01-05T20:31:38.673Z,4.07
2019-01-05T20:34:28.390Z,6.13
2019-01-05T20:37:28.777Z,4.27
2019-01-05T20:40:15.700Z,4.80
2019-01-05T20:43:07.174Z,3.47
2019-01-05T20:45:54.335Z,5.57
2019-01-05T20:48:34.735Z,4.77
2019-01-05T20:51:21.950Z,4.00
2019-01-05T20:54:08.558Z,3.83
2019-01-05T20:57:00.041Z,4.87
2019-01-05T20:59:47.139Z,4.57
2019-01-05T21:02:50.271Z,3.97
2019-01-05T21:05:44.717Z,4.10
2019-01-05T21:08:31.860Z,3.60
2019-01-05T21:11:18.972Z,4.77
2019-01-05T21:14:06.164Z,3.87
2019-01-05T21:16:53.419Z,3.40
2019-01-05T21:19:51.031Z,3.70
2019-01-05T21:22:37.914Z,3.73
2019-01-05T21:25:29.421Z,3.90
2019-01-05T21:28:16.500Z,3.50
2019-01-05T21:30:57.918Z,3.70
2019-01-05T21:33:58.977Z,4.47
2019-01-05T21:36:47.372Z,4.50
2019-01-05T21:39:44.699Z,3.53
2019-01-05T21:42:48.376Z,3.30
2019-01-05T21:45:35.364Z,3.83
2019-01-05T21:48:21.912Z,3.47
2019-01-05T21:51:09.036Z,3.70
2019-01-05T21:59:15.966Z,4.67
2019-01-05T22:01:54.895Z,4.97
2019-01-05T22:04:40.570Z,6.30
2019-01-05T22:07:28.952Z,5.03
2019-01-05T22:10:26.229Z,7.37
2019-01-05T22:13:07.715Z,5.20
2019-01-05T22:16:06.838Z,6.50
2019-01-05T22:19:10.241Z,6.40
2019-01-05T22:22:02.566Z,7.10
2019-01-05T22:24:51.028Z,6.80
2019-01-05T22:27:35.692Z,5.37
2019-01-05T22:30:37.434Z,6.63
2019-01-05T22:33:24.613Z,7.90
2019-01-05T22:36:22.258Z,6.53
2019-01-05T22:39:09.157Z,4.67
2019-01-05T22:41:59.975Z,5.77
2019-01-05T22:44:43.060Z,6.13
2019-01-05T22:47:34.237Z,6.63
2019-01-05T22:50:31.288Z,7.13
2019-01-05T22:53:19.013Z,8.13
2019-01-05T22:56:17.592Z,6.90
2019-01-05T22:59:04.419Z,7.77
2019-01-05T23:01:51.950Z,8.20
2019-01-05T23:04:48.155Z,6.43
2019-01-05T23:07:36.559Z,5.73
2019-01-05T23:10:36.687Z,7.30
2019-01-05T23:13:23.895Z,8.23
2019-01-05T23:16:27.486Z,6.80
2019-01-05T23:19:25.014Z,6.30
2019-01-05T23:22:19.105Z,8.57
2019-01-05T23:25:05.932Z,6.63
2019-01-05T23:27:57.096Z,8.13
2019-01-05T23:30:50.806Z,8.87
2019-01-05T23:33:33.093Z,6.77
2019-01-05T23:36:20.238Z,6.97
2019-01-05T23:39:16.699Z,6.23
2019-01-05T23:42:08.122Z,6.60
2019-01-05T23:45:02.634Z,6.73
2019-01-05T23:47:49.619Z,6.77
2019-01-05T23:50:34.427Z,5.50
2019-01-05T23:53:37.008Z,6.97
2019-01-05T23:56:25.456Z,5.00
2019-01-05T23:59:23.099Z,5.73
